Time;durP1;ratioP1;P1;durP2;ratioP2;P2;SDS_P1;SDS_P2;PMS_P1;PMS_P2;Temp;Humidity;BMP_temperature;BMP_pressure;BME280_temperature;BME280_humidity;BME280_pressure;Samples;Min_cycle;Max_cycle;Signal;HPM_P1;HPM_P2
2022/01/29 00:00:30;;;;;;;47.83;28.15;;;;;;;-146.48;100.00;36739.84;5303165;28;20426;-67
2022/01/29 00:03:02;;;;;;;48.42;28.58;;;;;;;-146.48;100.00;36813.53;5303190;28;20028;-68
2022/01/29 00:05:33;;;;;;;44.40;24.27;;;;;;;-146.48;100.00;36837.44;5303236;28;20070;-68
2022/01/29 00:08:05;;;;;;;51.80;28.73;;;;;;;-146.48;100.00;36678.09;5302987;28;20048;-67
2022/01/29 00:10:36;;;;;;;54.42;29.15;;;;;;;-146.48;100.00;36670.13;5303908;28;20028;-67
2022/01/29 00:13:07;;;;;;;50.70;29.95;;;;;;;-146.48;100.00;36737.84;5302352;28;20058;-67
2022/01/29 00:15:39;;;;;;;49.05;29.30;;;;;;;-146.48;100.00;36707.97;5303532;28;20063;-67
2022/01/29 00:18:10;;;;;;;48.28;28.77;;;;;;;-146.48;100.00;36690.03;5303028;28;20032;-67
2022/01/29 00:20:41;;;;;;;54.03;29.35;;;;;;;-146.48;100.00;36674.13;5302815;28;20056;-67
2022/01/29 00:23:13;;;;;;;53.67;29.23;;;;;;;-146.48;100.00;36668.13;5303023;28;20077;-67
2022/01/29 00:25:44;;;;;;;45.88;25.55;;;;;;;-146.48;100.00;36622.31;5303353;28;20092;-67
2022/01/29 00:28:15;;;;;;;44.97;23.60;;;;;;;-146.48;100.00;36638.25;5302016;28;20502;-67
2022/01/29 00:30:46;;;;;;;49.10;29.20;;;;;;;-146.48;100.00;36650.22;5303424;28;20058;-67
2022/01/29 00:33:18;;;;;;;51.15;27.75;;;;;;;-146.48;100.00;36594.44;5302702;28;20449;-67
2022/01/29 00:35:49;;;;;;;54.03;28.23;;;;;;;-146.48;100.00;36560.59;5302522;28;20387;-67
2022/01/29 00:38:20;;;;;;;49.80;28.65;;;;;;;-146.48;100.00;36546.63;5302748;28;20059;-67
2022/01/29 00:40:52;;;;;;;50.50;29.98;;;;;;;-146.48;100.00;36612.38;5302476;28;20140;-67
2022/01/29 00:43:23;;;;;;;48.35;28.15;;;;;;;-146.48;100.00;36652.19;5302941;28;20122;-66
2022/01/29 00:45:55;;;;;;;46.50;29.38;;;;;;;-146.48;100.00;36630.28;5302876;28;20028;-67
2022/01/29 00:48:26;;;;;;;50.75;29.52;;;;;;;-146.48;100.00;36717.94;5301949;28;20115;-67
2022/01/29 00:51:00;;;;;;;51.40;28.58;;;;;;;-146.48;100.00;36686.06;5302274;28;20032;-67
2022/01/29 00:53:31;;;;;;;52.80;28.85;;;;;;;-146.48;100.00;36646.22;5303156;28;20036;-67
2022/01/29 00:56:07;;;;;;;46.47;29.08;;;;;;;-146.48;100.00;36614.34;5301800;28;20089;-67
2022/01/29 00:58:38;;;;;;;52.47;28.00;;;;;;;-146.48;100.00;36610.38;5303028;28;20078;-67
2022/01/29 01:01:10;;;;;;;49.92;29.52;;;;;;;-146.48;100.00;36612.38;5302199;28;20028;-67
2022/01/29 01:03:41;;;;;;;52.72;29.17;;;;;;;-146.48;100.00;36686.06;5301990;28;20028;-66
2022/01/29 01:06:12;;;;;;;52.95;29.88;;;;;;;-146.48;100.00;36646.22;5301773;28;20055;-66
2022/01/29 01:08:44;;;;;;;48.92;27.85;;;;;;;-146.48;100.00;36642.25;5302786;28;20063;-66
2022/01/29 01:11:15;;;;;;;48.33;28.58;;;;;;;-146.48;100.00;36630.28;5301613;28;20519;-66
2022/01/29 01:13:46;;;;;;;51.42;28.38;;;;;;;-146.48;100.00;36582.50;5302728;28;20062;-66
2022/01/29 01:16:17;;;;;;;50.00;29.65;;;;;;;-146.48;100.00;36670.13;5301312;28;20028;-66
2022/01/29 01:18:49;;;;;;;50.13;28.08;;;;;;;-146.48;100.00;36682.06;5302862;28;20035;-66
2022/01/29 01:21:20;;;;;;;49.60;29.45;;;;;;;-146.48;100.00;36737.84;5302262;28;20024;-66
2022/01/29 01:23:51;;;;;;;47.33;28.45;;;;;;;-146.48;100.00;36799.59;5302134;28;20031;-66
2022/01/29 01:26:23;;;;;;;51.47;28.92;;;;;;;-146.48;100.00;36761.75;5301974;28;20024;-66
2022/01/29 01:28:54;;;;;;;50.30;28.75;;;;;;;-146.48;100.00;36731.88;5302733;28;20425;-66
2022/01/29 01:31:26;;;;;;;49.95;28.48;;;;;;;-146.48;100.00;36841.44;5301876;28;20049;-67
2022/01/29 01:33:57;;;;;;;48.72;28.60;;;;;;;-146.48;100.00;36885.25;5302174;28;20089;-67
2022/01/29 01:36:28;;;;;;;50.90;27.85;;;;;;;-146.48;100.00;36877.28;5302453;28;20038;-67
2022/01/29 01:39:05;;;;;;;48.67;25.40;;;;;;;-146.48;100.00;36833.47;5301184;28;20496;-67
2022/01/29 01:41:40;;;;;;;47.60;28.00;;;;;;;-146.48;100.00;36909.16;5302736;28;20020;-67
2022/01/29 01:44:13;;;;;;;47.03;27.63;;;;;;;-146.48;100.00;36954.97;5301056;28;20020;-67
2022/01/29 01:46:45;;;;;;;52.47;28.35;;;;;;;-146.48;100.00;37040.63;5302487;28;20020;-66
2022/01/29 01:49:16;;;;;;;45.55;26.08;;;;;;;-146.48;100.00;37100.38;5301738;28;20024;-67
2022/01/29 01:51:47;;;;;;;46.17;26.58;;;;;;;-146.48;100.00;36980.88;5301843;28;20479;-66
2022/01/29 01:54:18;;;;;;;50.15;27.73;;;;;;;-146.48;100.00;37060.53;5301875;28;20032;-66
2022/01/29 01:56:50;;;;;;;49.47;29.13;;;;;;;-146.48;100.00;37203.97;5302748;28;20016;-67
2022/01/29 01:59:21;;;;;;;45.70;27.88;;;;;;;-146.48;100.00;37048.59;5301094;28;20024;-67
2022/01/29 02:01:52;;;;;;;45.75;26.98;;;;;;;-146.48;100.00;37104.38;5302093;28;20047;-68
2022/01/29 02:04:24;;;;;;;39.90;24.60;;;;;;;-146.48;100.00;37096.41;5302234;28;20080;-68
2022/01/29 02:06:56;;;;;;;44.03;25.40;;;;;;;-146.48;100.00;37040.63;5301006;28;20086;-69
2022/01/29 02:09:29;;;;;;;43.28;28.48;;;;;;;-146.48;100.00;37118.31;5302279;28;20078;-65
2022/01/29 02:12:02;;;;;;;40.83;26.55;;;;;;;-146.48;100.00;37128.28;5301787;28;20382;-68
2022/01/29 02:14:35;;;;;;;42.55;24.80;;;;;;;-146.48;100.00;37229.88;5301312;28;20111;-66
2022/01/29 02:17:09;;;;;;;40.50;26.25;;;;;;;-146.48;100.00;37275.69;5303355;28;20160;-67
2022/01/29 02:19:40;;;;;;;40.95;25.70;;;;;;;-146.48;100.00;37205.97;5305157;28;20098;-67
2022/01/29 02:22:11;;;;;;;42.78;25.70;;;;;;;-146.48;100.00;37287.63;5305278;28;20623;-67
2022/01/29 02:24:42;;;;;;;38.58;25.02;;;;;;;-146.48;100.00;37231.84;5305770;28;20024;-67
2022/01/29 02:27:14;;;;;;;37.80;24.35;;;;;;;-146.48;100.00;37321.50;5304738;28;20035;-67
2022/01/29 02:29:45;;;;;;;39.95;25.65;;;;;;;-146.48;100.00;37305.56;5305914;28;20112;-67
2022/01/29 02:32:17;;;;;;;39.08;25.38;;;;;;;-146.48;100.00;37357.38;5305209;28;20027;-67
2022/01/29 02:34:48;;;;;;;40.60;24.90;;;;;;;-146.48;100.00;37508.78;5304932;28;20085;-67
2022/01/29 02:37:19;;;;;;;42.97;25.77;;;;;;;-146.48;100.00;37492.84;5304989;28;20024;-67
2022/01/29 02:39:50;;;;;;;38.25;24.35;;;;;;;-146.48;100.00;37462.94;5305710;28;20144;-67
2022/01/29 02:42:22;;;;;;;38.08;23.73;;;;;;;-146.48;100.00;37528.69;5304315;28;20040;-67
2022/01/29 02:44:54;;;;;;;35.38;24.50;;;;;;;-146.48;100.00;37632.28;5305218;28;20032;-67
2022/01/29 02:47:31;;;;;;;41.20;26.75;;;;;;;-146.48;100.00;37630.28;5304342;28;20020;-68
2022/01/29 02:50:03;;;;;;;41.17;27.63;;;;;;;-146.48;100.00;37823.56;5304915;28;20047;-67
2022/01/29 02:52:35;;;;;;;39.80;24.67;;;;;;;-146.48;100.00;37897.28;5305618;28;20028;-67
2022/01/29 02:55:06;;;;;;;40.55;25.67;;;;;;;-146.48;100.00;37990.91;5303917;28;20028;-67
2022/01/29 02:57:37;;;;;;;30.85;19.95;;;;;;;-146.48;100.00;38106.50;5305386;28;20111;-67
2022/01/29 03:00:10;;;;;;;40.65;24.45;;;;;;;-146.48;100.00;38172.25;5304645;28;20027;-67
2022/01/29 03:02:41;;;;;;;42.13;25.20;;;;;;;-146.48;100.00;38190.19;5304640;28;20492;-67
2022/01/29 03:05:12;;;;;;;43.20;26.05;;;;;;;-146.48;100.00;38327.66;5304741;28;20028;-67
2022/01/29 03:07:44;;;;;;;38.53;24.52;;;;;;;-146.48;100.00;38331.66;5305095;28;20048;-67
2022/01/29 03:10:16;;;;;;;37.60;24.27;;;;;;;-146.48;100.00;38399.41;5303565;28;20032;-67
2022/01/29 03:12:47;;;;;;;43.20;26.02;;;;;;;-146.48;100.00;38439.25;5304531;28;20020;-67
2022/01/29 03:15:18;;;;;;;40.80;26.38;;;;;;;-146.48;100.00;38526.94;5304078;28;20562;-67
2022/01/29 03:17:50;;;;;;;35.75;24.70;;;;;;;-146.48;100.00;38522.94;5304097;28;20028;-67
2022/01/29 03:20:21;;;;;;;36.88;24.00;;;;;;;-146.48;100.00;38660.44;5304222;28;20445;-68
2022/01/29 03:22:53;;;;;;;41.60;24.45;;;;;;;-146.48;100.00;38714.25;5304148;28;20085;-68
2022/01/29 03:25:24;;;;;;;36.55;23.67;;;;;;;-146.48;100.00;38929.50;5304319;28;20118;-68
2022/01/29 03:27:55;;;;;;;41.80;25.52;;;;;;;-146.48;100.00;38847.78;5304225;28;20020;-67
2022/01/29 03:30:27;;;;;;;31.63;18.65;;;;;;;-146.48;100.00;38967.34;5303703;28;20016;-68
2022/01/29 03:32:58;;;;;;;40.83;23.95;;;;;;;-146.48;100.00;38993.25;5303917;28;20031;-68
2022/01/29 03:35:29;;;;;;;41.25;25.15;;;;;;;-146.48;100.00;38847.78;5304457;28;20111;-68
2022/01/29 03:38:01;;;;;;;42.42;24.77;;;;;;;-146.48;100.00;38760.09;5303154;28;20145;-67
2022/01/29 03:40:33;;;;;;;43.58;25.80;;;;;;;-146.48;100.00;38778.03;5304337;28;20028;-67
2022/01/29 03:43:09;;;;;;;43.70;26.17;;;;;;;-146.48;100.00;38764.06;5303860;28;20020;-67
2022/01/29 03:45:40;;;;;;;39.95;24.52;;;;;;;-146.48;100.00;38678.38;5303437;28;20468;-67
2022/01/29 03:48:11;;;;;;;42.83;27.17;;;;;;;-146.48;100.00;38620.59;5303429;28;20459;-68
2022/01/29 03:50:43;;;;;;;39.15;23.73;;;;;;;-146.48;100.00;38572.78;5303604;28;20027;-68
2022/01/29 03:53:14;;;;;;;41.72;24.98;;;;;;;-146.48;100.00;38632.56;5303665;28;20031;-68
2022/01/29 03:55:45;;;;;;;37.67;22.83;;;;;;;-146.48;100.00;38646.50;5304177;28;20024;-68
2022/01/29 03:58:17;;;;;;;45.13;24.42;;;;;;;-146.48;100.00;38558.81;5302650;28;20111;-68
2022/01/29 04:00:48;;;;;;;35.92;22.42;;;;;;;-146.48;100.00;38560.81;5303981;28;20418;-67
2022/01/29 04:03:19;;;;;;;38.53;23.42;;;;;;;-146.48;100.00;38455.19;5303478;28;20471;-67
2022/01/29 04:05:51;;;;;;;37.92;22.63;;;;;;;-146.48;100.00;38447.22;5302881;28;20027;-68
2022/01/29 04:08:23;;;;;;;36.83;22.65;;;;;;;-146.48;100.00;38471.13;5303310;28;20066;-68
2022/01/29 04:10:55;;;;;;;35.50;21.70;;;;;;;-146.48;100.00;38507.00;5303365;28;20024;-67
2022/01/29 04:13:27;;;;;;;37.33;22.48;;;;;;;-146.48;100.00;38399.41;5302629;28;20502;-67
2022/01/29 04:15:59;;;;;;;33.97;16.23;;;;;;;-146.48;100.00;38301.75;5303331;28;20098;-67
2022/01/29 04:18:30;;;;;;;29.45;16.13;;;;;;;-146.48;100.00;38291.78;5303461;28;20107;-68
2022/01/29 04:21:03;;;;;;;36.63;21.10;;;;;;;-146.48;100.00;38255.94;5302039;28;20031;-68
2022/01/29 04:23:34;;;;;;;35.05;21.42;;;;;;;-146.48;100.00;38259.91;5303423;28;20020;-68
2022/01/29 04:26:06;;;;;;;34.53;21.55;;;;;;;-146.48;100.00;38134.38;5302123;28;20450;-68
2022/01/29 04:28:41;;;;;;;33.25;19.95;;;;;;;-146.48;100.00;38226.03;5303491;28;20020;-67
2022/01/29 04:31:18;;;;;;;32.15;19.65;;;;;;;-146.48;100.00;38174.22;5302826;28;20066;-67
2022/01/29 04:33:49;;;;;;;33.15;19.15;;;;;;;-146.48;100.00;38184.19;5302693;28;20024;-67
2022/01/29 04:36:20;;;;;;;33.05;21.08;;;;;;;-146.48;100.00;38198.16;5302894;28;20030;-68
2022/01/29 04:38:54;;;;;;;33.50;20.95;;;;;;;-146.48;100.00;38273.88;5302699;28;20028;-67
2022/01/29 04:41:26;;;;;;;30.90;19.65;;;;;;;-146.48;100.00;38313.72;5302038;28;20036;-68
2022/01/29 04:43:57;;;;;;;33.58;19.10;;;;;;;-146.48;100.00;38319.69;5302715;28;20020;-68
2022/01/29 04:46:29;;;;;;;33.85;19.00;;;;;;;-146.48;100.00;38321.69;5303148;28;20060;-68
2022/01/29 04:49:00;;;;;;;32.90;20.35;;;;;;;-146.48;100.00;38299.75;5302028;28;20030;-68
2022/01/29 04:51:31;;;;;;;35.92;21.40;;;;;;;-146.48;100.00;38295.78;5303186;28;20028;-68
2022/01/29 04:54:03;;;;;;;35.17;22.67;;;;;;;-146.48;100.00;38313.72;5301840;28;20020;-68
2022/01/29 04:56:34;;;;;;;37.08;22.38;;;;;;;-146.48;100.00;38333.63;5302980;28;20047;-68
2022/01/29 04:59:06;;;;;;;35.55;21.58;;;;;;;-146.48;100.00;38307.75;5302478;28;20016;-68
2022/01/29 05:01:39;;;;;;;36.00;22.52;;;;;;;-146.48;100.00;38311.72;5302721;28;20452;-67
2022/01/29 05:04:10;;;;;;;34.17;22.20;;;;;;;-146.48;100.00;38285.81;5302429;28;20039;-68
2022/01/29 05:06:41;;;;;;;40.30;21.98;;;;;;;-146.48;100.00;38367.53;5302544;28;20052;-68
2022/01/29 05:09:12;;;;;;;36.30;22.42;;;;;;;-146.48;100.00;38399.41;5301522;28;20024;-68
2022/01/29 05:11:47;;;;;;;34.90;23.52;;;;;;;-146.48;100.00;38479.09;5303080;28;20103;-68
2022/01/29 05:14:30;;;;;;;36.05;21.42;;;;;;;-146.48;100.00;38582.72;5302443;28;20027;-67
2022/01/29 05:28:37;;;;;;;36.17;24.55;;;;;;;-146.48;100.00;38405.38;5302748;28;20072;-67
2022/01/29 05:31:08;;;;;;;38.00;23.83;;;;;;;-146.48;100.00;38403.38;5301326;28;20024;-67
2022/01/29 05:33:40;;;;;;;39.17;24.30;;;;;;;-146.48;100.00;38407.38;5302774;28;20419;-67
2022/01/29 05:36:11;;;;;;;37.65;23.65;;;;;;;-146.48;100.00;38493.06;5301143;28;20221;-67
2022/01/29 05:38:43;;;;;;;39.83;24.23;;;;;;;-146.48;100.00;38389.44;5302479;28;20024;-67
2022/01/29 05:41:15;;;;;;;38.40;25.15;;;;;;;-146.48;100.00;38481.09;5302203;28;20471;-67
2022/01/29 05:43:47;;;;;;;40.50;25.00;;;;;;;-146.48;100.00;38495.06;5301877;28;20024;-67
2022/01/29 05:46:19;;;;;;;37.55;24.08;;;;;;;-146.48;100.00;38516.97;5301991;28;20028;-67
2022/01/29 05:48:50;;;;;;;41.70;26.05;;;;;;;-146.48;100.00;38570.78;5302304;28;20069;-67
2022/01/29 05:51:21;;;;;;;40.22;24.35;;;;;;;-146.48;100.00;38606.66;5303109;28;20372;-67
2022/01/29 05:53:52;;;;;;;42.45;25.67;;;;;;;-146.48;100.00;38544.88;5306086;28;20460;-67
2022/01/29 05:56:25;;;;;;;38.35;24.75;;;;;;;-146.48;100.00;38620.59;5306250;28;20482;-67
2022/01/29 05:58:57;;;;;;;38.05;24.02;;;;;;;-146.48;100.00;38612.63;5305071;28;20032;-67
2022/01/29 06:01:28;;;;;;;39.60;25.55;;;;;;;-146.48;100.00;38714.25;5306404;28;20027;-66
2022/01/29 06:03:59;;;;;;;40.20;25.75;;;;;;;-146.48;100.00;38684.38;5305793;28;20494;-67
2022/01/29 06:06:30;;;;;;;40.70;26.42;;;;;;;-146.48;100.00;38620.59;5305470;28;20495;-67
2022/01/29 06:09:04;;;;;;;42.40;26.27;;;;;;;-146.48;100.00;38706.28;5305448;28;20060;-67
2022/01/29 06:11:35;;;;;;;42.28;26.38;;;;;;;-146.48;100.00;38624.59;5305425;28;20505;-67
2022/01/29 06:14:07;;;;;;;39.88;26.65;;;;;;;-146.48;100.00;38634.53;5305348;28;20077;-67
2022/01/29 06:16:38;;;;;;;39.47;25.73;;;;;;;-146.48;100.00;38702.31;5305982;28;20020;-67
2022/01/29 06:19:09;;;;;;;40.80;26.10;;;;;;;-146.48;100.00;38789.97;5304853;28;20364;-66
2022/01/29 06:21:40;;;;;;;42.47;26.77;;;;;;;-146.48;100.00;38797.97;5305953;28;20035;-66
2022/01/29 06:24:12;;;;;;;41.28;27.02;;;;;;;-146.48;100.00;38696.31;5305296;28;20038;-66
2022/01/29 06:26:43;;;;;;;39.88;26.15;;;;;;;-146.48;100.00;38674.41;5305158;28;20035;-66
2022/01/29 06:29:14;;;;;;;41.35;26.70;;;;;;;-146.48;100.00;38754.13;5305389;28;20087;-67
2022/01/29 06:31:49;;;;;;;38.60;26.20;;;;;;;-146.48;100.00;38877.69;5305888;28;20032;-67
2022/01/29 06:34:20;;;;;;;39.15;27.63;;;;;;;-146.48;100.00;38903.59;5304514;28;20024;-66
2022/01/29 06:36:51;;;;;;;39.25;26.80;;;;;;;-146.48;100.00;38933.47;5305568;28;20040;-66
2022/01/29 06:39:23;;;;;;;42.13;28.17;;;;;;;-146.48;100.00;38921.53;5305142;28;20111;-66
2022/01/29 06:41:54;;;;;;;39.85;27.15;;;;;;;-146.48;100.00;38939.47;5305032;28;20024;-67
2022/01/29 06:44:25;;;;;;;43.65;26.80;;;;;;;-146.48;100.00;38847.78;5305355;28;20020;-67
2022/01/29 06:46:56;;;;;;;37.15;26.27;;;;;;;-146.48;100.00;38809.91;5304145;28;20071;-66
2022/01/29 06:49:28;;;;;;;36.05;25.75;;;;;;;-146.48;100.00;38843.78;5305437;28;20036;-66
2022/01/29 06:51:59;;;;;;;38.47;26.00;;;;;;;-146.48;100.00;38815.91;5304762;28;20046;-67
2022/01/29 06:54:30;;;;;;;37.35;25.00;;;;;;;-146.48;100.00;38837.81;5304578;28;20035;-66
2022/01/29 06:57:02;;;;;;;34.47;25.90;;;;;;;-146.48;100.00;38849.78;5304400;28;20066;-67
2022/01/29 06:59:33;;;;;;;35.88;25.63;;;;;;;-146.48;100.00;38893.63;5304966;28;20032;-67
2022/01/29 07:02:04;;;;;;;36.63;25.40;;;;;;;-146.48;100.00;38871.69;5302903;28;20076;-67
2022/01/29 07:04:36;;;;;;;35.72;25.33;;;;;;;-146.48;100.00;38877.69;5305278;28;20039;-66
2022/01/29 07:07:07;;;;;;;39.60;26.08;;;;;;;-146.48;100.00;38782.00;5304236;28;20138;-67
2022/01/29 07:09:38;;;;;;;36.63;26.50;;;;;;;-146.48;100.00;38650.50;5304181;28;20383;-67
2022/01/29 07:12:11;;;;;;;35.83;24.95;;;;;;;-146.48;100.00;38758.09;5304443;28;20032;-67
2022/01/29 07:14:42;;;;;;;33.53;24.85;;;;;;;-146.48;100.00;38662.44;5304443;28;20074;-67
2022/01/29 07:17:16;;;;;;;37.45;24.80;;;;;;;-146.48;100.00;38622.59;5304386;28;20035;-68
2022/01/29 07:19:52;;;;;;;36.45;26.58;;;;;;;-146.48;100.00;38760.09;5304913;28;20020;-68
2022/01/29 07:22:23;;;;;;;34.38;24.45;;;;;;;-146.48;100.00;38692.34;5303446;28;20031;-68
2022/01/29 07:24:54;;;;;;;36.65;26.77;;;;;;;-146.48;100.00;38682.38;5304653;28;20406;-68
2022/01/29 07:27:26;;;;;;;32.28;23.35;;;;;;;-146.48;100.00;38692.34;5304278;28;20055;-67
2022/01/29 07:29:57;;;;;;;37.58;25.30;;;;;;;-146.48;100.00;38780.03;5303489;28;20456;-68
2022/01/29 07:32:28;;;;;;;34.33;25.80;;;;;;;-146.48;100.00;38788.00;5304585;28;20028;-68
2022/01/29 07:34:59;;;;;;;36.67;24.35;;;;;;;-146.48;100.00;38789.97;5303764;28;20024;-68
2022/01/29 07:37:31;;;;;;;35.53;25.55;;;;;;;-146.48;100.00;38867.72;5303940;28;20028;-68
2022/01/29 07:40:05;;;;;;;34.05;24.77;;;;;;;-146.48;100.00;38881.66;5303807;28;20027;-68
2022/01/29 07:42:37;;;;;;;33.90;24.83;;;;;;;-146.48;100.00;38973.34;5304340;28;20040;-67
2022/01/29 07:45:09;;;;;;;32.00;24.50;;;;;;;-146.48;100.00;38985.28;5302943;28;20482;-68
2022/01/29 07:47:40;;;;;;;33.38;24.90;;;;;;;-146.48;100.00;39009.22;5304288;28;20111;-68
2022/01/29 07:50:11;;;;;;;31.98;23.02;;;;;;;-146.48;100.00;39033.13;5303020;28;20039;-68
2022/01/29 07:52:43;;;;;;;33.72;24.05;;;;;;;-146.48;100.00;38951.41;5304248;28;20032;-68
2022/01/29 07:55:14;;;;;;;28.58;23.38;;;;;;;-146.48;100.00;38925.50;5303502;28;20043;-68
2022/01/29 07:57:45;;;;;;;29.35;23.25;;;;;;;-146.48;100.00;38859.75;5303284;28;20047;-68
2022/01/29 08:00:17;;;;;;;30.17;23.35;;;;;;;-146.48;100.00;38917.53;5303312;28;20510;-68
2022/01/29 08:02:48;;;;;;;36.20;24.92;;;;;;;-146.48;100.00;38981.31;5304170;28;20108;-67
2022/01/29 08:05:20;;;;;;;31.67;24.55;;;;;;;-146.48;100.00;38919.53;5302571;28;20024;-68
2022/01/29 08:07:51;;;;;;;29.48;22.80;;;;;;;-146.48;100.00;38973.34;5304032;28;20130;-68
2022/01/29 08:10:22;;;;;;;29.33;23.38;;;;;;;-146.48;100.00;39013.19;5303351;28;20078;-67
2022/01/29 08:12:54;;;;;;;32.72;24.80;;;;;;;-146.48;100.00;38913.53;5302695;28;20031;-68
2022/01/29 08:15:25;;;;;;;31.50;25.25;;;;;;;-146.48;100.00;38879.66;5302776;28;20095;-68
2022/01/29 08:17:56;;;;;;;30.05;22.45;;;;;;;-146.48;100.00;38917.53;5302602;28;20034;-68
2022/01/29 08:20:28;;;;;;;30.40;23.00;;;;;;;-146.48;100.00;38865.72;5304044;28;20498;-68
2022/01/29 08:22:59;;;;;;;27.60;22.58;;;;;;;-146.48;100.00;38801.94;5303107;28;20024;-66
2022/01/29 08:25:30;;;;;;;32.58;23.50;;;;;;;-146.48;100.00;38768.06;5303084;28;20042;-66
2022/01/29 08:28:01;;;;;;;26.90;22.27;;;;;;;-146.48;100.00;38688.34;5303154;28;20069;-67
2022/01/29 08:30:33;;;;;;;26.50;22.08;;;;;;;-146.48;100.00;38612.63;5303672;28;20036;-68
2022/01/29 08:33:06;;;;;;;28.98;20.88;;;;;;;-146.48;100.00;38538.88;5301473;28;20352;-67
2022/01/29 08:35:37;;;;;;;27.52;23.35;;;;;;;-146.48;100.00;38435.28;5303618;28;20028;-68
2022/01/29 08:38:09;;;;;;;30.20;24.50;;;;;;;-146.48;100.00;38234.00;5302941;28;20020;-67
2022/01/29 08:40:40;;;;;;;26.80;22.08;;;;;;;-146.48;100.00;37911.22;5302547;28;20105;-68
2022/01/29 08:43:12;;;;;;;27.60;20.30;;;;;;;-146.48;100.00;37592.44;5302207;28;20513;-68
2022/01/29 08:45:43;;;;;;;23.98;21.38;;;;;;;-146.48;100.00;37458.97;5303082;28;20024;-68
2022/01/29 08:48:14;;;;;;;24.60;20.35;;;;;;;-146.48;100.00;37335.44;5301764;28;20043;-68
2022/01/29 08:50:46;;;;;;;26.02;21.25;;;;;;;-146.48;100.00;37333.47;5303349;28;20356;-67
2022/01/29 08:53:19;;;;;;;25.40;21.88;;;;;;;-146.48;100.00;37297.59;5301940;28;20016;-66
2022/01/29 08:55:50;;;;;;;25.48;21.48;;;;;;;-146.48;100.00;37199.97;5303260;28;20379;-67
2022/01/29 08:58:21;;;;;;;25.42;21.48;;;;;;;-146.48;100.00;37188.03;5302438;28;20032;-68
2022/01/29 09:00:53;;;;;;;23.38;19.95;;;;;;;-146.48;100.00;37040.63;5302126;28;20035;-69
2022/01/29 09:03:25;;;;;;;27.75;20.67;;;;;;;-146.48;100.00;37114.31;5302892;28;20111;-68
2022/01/29 09:05:56;;;;;;;23.80;20.20;;;;;;;-146.48;100.00;37098.38;5302611;28;20070;-68
2022/01/29 09:08:28;;;;;;;23.90;18.77;;;;;;;-146.48;100.00;37046.59;5302048;28;20023;-68
2022/01/29 09:10:59;;;;;;;24.55;20.98;;;;;;;-146.48;100.00;37062.53;5302417;28;20386;-67
2022/01/29 09:13:31;;;;;;;22.75;19.40;;;;;;;-146.48;100.00;37072.50;5303089;28;20028;-67
2022/01/29 09:16:02;;;;;;;20.52;18.30;;;;;;;-146.48;100.00;37060.53;5301827;28;20036;-67
2022/01/29 09:18:34;;;;;;;24.30;20.35;;;;;;;-146.48;100.00;37064.53;5303155;28;20058;-67
2022/01/29 09:21:05;;;;;;;24.40;19.55;;;;;;;-146.48;100.00;37012.72;5302568;28;20028;-68
2022/01/29 09:23:36;;;;;;;21.48;19.17;;;;;;;-146.48;100.00;36984.84;5300465;28;20024;-68
2022/01/29 09:26:08;;;;;;;22.92;18.23;;;;;;;-146.48;100.00;36917.13;5302740;28;20035;-68
2022/01/29 09:28:39;;;;;;;23.90;18.42;;;;;;;-146.48;100.00;36845.41;5305359;28;20539;-68
2022/01/29 09:31:10;;;;;;;22.50;17.23;;;;;;;-146.48;100.00;36725.91;5305305;28;20103;-67
2022/01/29 09:33:42;;;;;;;20.20;17.30;;;;;;;-146.48;100.00;36662.16;5305884;28;20032;-68
2022/01/29 09:36:13;;;;;;;20.77;16.75;;;;;;;-146.48;100.00;36578.50;5304126;28;20027;-68
2022/01/29 09:38:45;;;;;;;21.70;17.17;;;;;;;-146.48;100.00;36536.69;5305826;28;20031;-68
2022/01/29 09:41:18;;;;;;;21.80;17.23;;;;;;;-146.48;100.00;36524.72;5305200;28;20048;-67
2022/01/29 09:43:51;;;;;;;19.38;17.33;;;;;;;-146.48;100.00;36478.91;5304981;28;20047;-68
2022/01/29 09:46:27;;;;;;;21.77;17.13;;;;;;;-146.48;100.00;36387.31;5304937;28;20107;-68
2022/01/29 09:48:58;;;;;;;18.83;16.92;;;;;;;-146.48;100.00;36313.59;5305280;28;20046;-68
2022/01/29 09:51:31;;;;;;;19.80;16.75;;;;;;;-146.48;100.00;36415.19;5304555;28;20020;-68
2022/01/29 09:54:02;;;;;;;19.42;16.95;;;;;;;-146.48;100.00;36419.16;5305010;28;20032;-68
2022/01/29 09:56:33;;;;;;;18.95;17.00;;;;;;;-146.48;100.00;36461.00;5305164;28;20028;-67
2022/01/29 09:59:05;;;;;;;19.02;15.82;;;;;;;-146.48;100.00;36393.28;5304742;28;20081;-68
2022/01/29 10:01:36;;;;;;;20.08;16.85;;;;;;;-146.48;100.00;36383.31;5305463;28;20372;-68
2022/01/29 10:04:07;;;;;;;19.05;17.02;;;;;;;-146.48;100.00;36464.97;5303371;28;20119;-68
2022/01/29 10:06:43;;;;;;;20.38;16.83;;;;;;;-146.48;100.00;36423.16;5305149;28;20410;-68
2022/01/29 10:09:33;;;;;;;22.02;16.58;;;;;;;-146.48;100.00;36393.28;5304689;28;20032;-68
2022/01/29 10:12:31;;;;;;;21.00;17.50;;;;;;;-146.48;100.00;36361.41;5303485;28;20059;-68
2022/01/29 10:15:07;;;;;;;19.90;16.42;;;;;;;-146.48;100.00;36194.13;5304403;28;20016;-68
2022/01/29 10:17:47;;;;;;;20.00;15.27;;;;;;;-146.48;100.00;36072.63;5303775;28;20548;-67
2022/01/29 10:20:21;;;;;;;17.75;15.95;;;;;;;-146.48;100.00;35837.63;5304566;28;20028;-67
2022/01/29 10:22:54;;;;;;;19.85;17.65;;;;;;;-146.48;100.00;35767.94;5304751;28;20027;-67
2022/01/29 10:25:31;;;;;;;18.50;16.63;;;;;;;-146.48;100.00;35785.88;5303757;28;20156;-68
2022/01/29 10:28:09;;;;;;;19.42;15.85;;;;;;;-146.48;100.00;35732.09;5304093;28;20069;-67
2022/01/29 10:30:50;;;;;;;18.98;17.05;;;;;;;-146.48;100.00;35632.53;5304272;28;20134;-67
2022/01/29 10:33:39;;;;;;;17.65;15.30;;;;;;;-146.48;100.00;35610.63;5303617;28;20475;-67
2022/01/29 10:36:15;;;;;;;19.15;14.48;;;;;;;-146.48;100.00;35441.38;5304197;28;20039;-67
2022/01/29 10:38:47;;;;;;;19.02;15.15;;;;;;;-146.48;100.00;35256.19;5302794;28;20020;-68
2022/01/29 10:41:29;;;;;;;16.83;14.27;;;;;;;-146.48;100.00;35258.19;5304047;28;20149;-67
2022/01/29 10:46:48;;;;;;;16.35;14.20;;;;;;;-146.48;100.00;34842.06;5303687;28;20032;-67
2022/01/29 10:49:32;;;;;;;14.05;12.65;;;;;;;-146.48;100.00;34828.13;5303769;28;20031;-68
2022/01/29 10:52:08;;;;;;;15.65;12.57;;;;;;;-146.48;100.00;34706.69;5305140;28;20016;-69
2022/01/29 10:54:42;;;;;;;14.10;11.50;;;;;;;-146.48;100.00;34501.66;5304595;28;20077;-67
2022/01/29 10:57:15;;;;;;;11.18;9.98;;;;;;;-146.48;100.00;34418.03;5304808;28;20383;-68
2022/01/29 10:59:49;;;;;;;10.63;9.63;;;;;;;-146.48;100.00;34338.41;5304814;28;20050;-69
2022/01/29 11:02:24;;;;;;;11.13;9.93;;;;;;;-146.48;100.00;34173.19;5304679;28;20384;-69
2022/01/29 11:04:56;;;;;;;16.45;10.13;;;;;;;-146.48;100.00;34133.38;5304969;28;20024;-69
2022/01/29 11:07:29;;;;;;;10.45;8.93;;;;;;;-146.48;100.00;34073.66;5304049;28;20044;-69
2022/01/29 11:10:04;;;;;;;11.15;9.45;;;;;;;-146.48;100.00;34099.53;5304687;28;20063;-71
2022/01/29 11:12:38;;;;;;;11.25;8.50;;;;;;;-146.48;100.00;34121.44;5296218;28;20060;-69
2022/01/29 11:15:10;;;;;;;9.30;7.47;;;;;;;-146.48;100.00;34006.00;5283198;28;20070;-69
2022/01/29 11:17:43;;;;;;;11.63;7.82;;;;;;;-146.48;100.00;33894.53;5283344;28;20028;-71
2022/01/29 11:20:15;;;;;;;7.68;6.93;;;;;;;-146.48;100.00;33816.91;5283242;28;20055;-70
2022/01/29 11:22:50;;;;;;;7.07;5.75;;;;;;;-146.48;100.00;33731.31;5283337;28;20622;-69
2022/01/29 11:25:31;;;;;;;8.20;5.15;;;;;;;-146.48;100.00;33663.66;5283381;28;20444;-68
2022/01/29 11:28:16;;;;;;;5.55;5.05;;;;;;;-146.48;100.00;33649.72;5282539;28;20156;-67
2022/01/29 11:31:15;;;;;;;5.88;4.57;;;;;;;-146.48;100.00;33667.63;5283829;28;20375;-69